Capt John — WDJ5373 — position and weather

sailwx.info

Track history (hours):
 
Tides and Currents Weather Stations Pressure Air Temp Water Temp Dewpoint Dewpoint Depression Visibility Wind Speed Wind Dir Waves Ship Positions

Capt John

Owner: F Nelson Blount, BARNEGAT LIGHT, NJ. More information available from US FCC via Universal Licensing System and Coast Guard Vessel Documentation Center.

Last reported at 2018-Feb-19 13:30 UTC. Time now 2018-Feb-19 14:02 UTC.
Position N 39°45' W 074°07'.

Length 23 m.

Type: Fishing. MMSI: 367787020.

Date/timePositionNaut miles runAvg speedWind from/ knotsBaromVisibWave heightAir tempDewpointWater temp
2018-Feb-19 13:30N 39°45' W 074°07'2 0.1
2018-Feb-18 13:28N 39°46' W 074°04'2 1.6
2018-Feb-18 12:11N 39°45' W 074°07'0 0.0
2018-Feb-18 10:11N 39°45' W 074°07'0 0.0
2018-Feb-18 07:59N 39°45' W 074°07'0 0.0
2018-Feb-18 07:26N 39°45' W 074°07'0 0.0
2018-Feb-18 06:56N 39°45' W 074°07'0 0.0
2018-Feb-18 06:17N 39°45' W 074°07'0 0.0
2018-Feb-18 05:56N 39°45' W 074°07'0 0.0
2018-Feb-18 05:14N 39°45' W 074°07'0 0.0
2018-Feb-18 04:53N 39°45' W 074°07'0 0.0
2018-Feb-18 04:23N 39°45' W 074°07'0 0.0
2018-Feb-18 02:23N 39°45' W 074°07'0 0.0
2018-Feb-18 01:56N 39°45' W 074°07'0 0.0
2018-Feb-17 19:59N 39°45' W 074°07'0 0.0
2018-Feb-17 19:23N 39°45' W 074°07'0 0.0
2018-Feb-17 18:26N 39°45' W 074°07'0 0.0
2018-Feb-17 09:53N 39°45' W 074°07'0 0.0
2018-Feb-17 08:47N 39°45' W 074°07'0 0.0
2018-Feb-17 07:29N 39°45' W 074°07'0 0.0
2018-Feb-17 04:23N 39°45' W 074°07'0 0.0
2018-Feb-17 03:56N 39°45' W 074°07'0 0.0
2018-Feb-17 00:56N 39°45' W 074°07'0 0.0
2018-Feb-16 21:44N 39°45' W 074°07'0 0.0
2018-Feb-16 20:11N 39°45' W 074°07'0 0.0
2018-Feb-16 19:56N 39°45' W 074°07'0 0.0
2018-Feb-16 19:26N 39°45' W 074°07'0 0.0
2018-Feb-16 18:56N 39°45' W 074°07'0 0.0
2018-Feb-16 17:44N 39°45' W 074°07'0 0.0
2018-Feb-16 10:11N 39°45' W 074°07'0 0.0
2018-Feb-16 08:32N 39°45' W 074°07'0 0.0
2018-Feb-16 08:17N 39°45' W 074°07'0 0.0
2018-Feb-16 06:56N 39°45' W 074°07'0 0.0
2018-Feb-16 02:56N 39°45' W 074°07'0 0.0
2018-Feb-16 02:11N 39°45' W 074°07'0 0.0
2018-Feb-15 18:47N 39°45' W 074°07'0 0.0
2018-Feb-15 16:17N 39°45' W 074°07'0 0.0
2018-Feb-15 13:50N 39°45' W 074°07'0 0.0
2018-Feb-15 13:20N 39°45' W 074°07'0 0.0
2018-Feb-15 12:59N 39°45' W 074°07'1 0.7
2018-Feb-15 12:09N 39°46' W 074°07'1 6.0
2018-Feb-15 11:55N 39°46' W 074°05'1 0.1
2018-Feb-14 14:02N 39°46' W 074°03'1 8.6
2018-Feb-14 13:53N 39°46' W 074°05'2 2.1
2018-Feb-14 13:08N 39°45' W 074°07'0 0.0
2018-Feb-14 12:59N 39°45' W 074°07'3 5.7
2018-Feb-14 12:22N 39°46' W 074°03'2 0.1
2018-Feb-13 13:11N 39°46' W 074°01'2 8.1
2018-Feb-13 12:57N 39°46' W 074°03'3 0.3
2018-Feb-13 02:22N 39°45' W 074°07'0 0.0
2018-Feb-12 12:13N 39°45' W 074°07'0 0.0
2018-Feb-10 23:16N 39°45' W 074°07'0 0.0
2018-Feb-10 14:10N 39°45' W 074°07'0 0.0
2018-Feb-10 13:49N 39°45' W 074°07'0 0.6
2018-Feb-10 13:28N 39°45' W 074°07'  
Track history (hours):
 
Tides and Currents Weather Stations Pressure Air Temp Water Temp Dewpoint Dewpoint Depression Visibility Wind Speed Wind Dir Waves Ship Positions

Capt John

Owner: F Nelson Blount, BARNEGAT LIGHT, NJ. More information available from US FCC via Universal Licensing System and Coast Guard Vessel Documentation Center.

Last reported at 2018-Feb-19 13:30 UTC. Time now 2018-Feb-19 14:02 UTC.
Position N 39°45' W 074°07'.

Length 23 m.

Type: Fishing. MMSI: 367787020.

Date/timePositionNaut miles runAvg speedWind from/ knotsBaromVisibWave heightAir tempDewpointWater temp
2018-Feb-19 13:30N 39°45' W 074°07'2 0.1
2018-Feb-18 13:28N 39°46' W 074°04'2 1.6
2018-Feb-18 12:11N 39°45' W 074°07'0 0.0
2018-Feb-18 10:11N 39°45' W 074°07'0 0.0
2018-Feb-18 07:59N 39°45' W 074°07'0 0.0
2018-Feb-18 07:26N 39°45' W 074°07'0 0.0
2018-Feb-18 06:56N 39°45' W 074°07'0 0.0
2018-Feb-18 06:17N 39°45' W 074°07'0 0.0
2018-Feb-18 05:56N 39°45' W 074°07'0 0.0
2018-Feb-18 05:14N 39°45' W 074°07'0 0.0
2018-Feb-18 04:53N 39°45' W 074°07'0 0.0
2018-Feb-18 04:23N 39°45' W 074°07'0 0.0
2018-Feb-18 02:23N 39°45' W 074°07'0 0.0
2018-Feb-18 01:56N 39°45' W 074°07'0 0.0
2018-Feb-17 19:59N 39°45' W 074°07'0 0.0
2018-Feb-17 19:23N 39°45' W 074°07'0 0.0
2018-Feb-17 18:26N 39°45' W 074°07'0 0.0
2018-Feb-17 09:53N 39°45' W 074°07'0 0.0
2018-Feb-17 08:47N 39°45' W 074°07'0 0.0
2018-Feb-17 07:29N 39°45' W 074°07'0 0.0
2018-Feb-17 04:23N 39°45' W 074°07'0 0.0
2018-Feb-17 03:56N 39°45' W 074°07'0 0.0
2018-Feb-17 00:56N 39°45' W 074°07'0 0.0
2018-Feb-16 21:44N 39°45' W 074°07'0 0.0
2018-Feb-16 20:11N 39°45' W 074°07'0 0.0
2018-Feb-16 19:56N 39°45' W 074°07'0 0.0
2018-Feb-16 19:26N 39°45' W 074°07'0 0.0
2018-Feb-16 18:56N 39°45' W 074°07'0 0.0
2018-Feb-16 17:44N 39°45' W 074°07'0 0.0
2018-Feb-16 10:11N 39°45' W 074°07'0 0.0
2018-Feb-16 08:32N 39°45' W 074°07'0 0.0
2018-Feb-16 08:17N 39°45' W 074°07'0 0.0
2018-Feb-16 06:56N 39°45' W 074°07'0 0.0
2018-Feb-16 02:56N 39°45' W 074°07'0 0.0
2018-Feb-16 02:11N 39°45' W 074°07'0 0.0
2018-Feb-15 18:47N 39°45' W 074°07'0 0.0
2018-Feb-15 16:17N 39°45' W 074°07'0 0.0
2018-Feb-15 13:50N 39°45' W 074°07'0 0.0
2018-Feb-15 13:20N 39°45' W 074°07'0 0.0
2018-Feb-15 12:59N 39°45' W 074°07'1 0.7
2018-Feb-15 12:09N 39°46' W 074°07'1 6.0
2018-Feb-15 11:55N 39°46' W 074°05'1 0.1
2018-Feb-14 14:02N 39°46' W 074°03'1 8.6
2018-Feb-14 13:53N 39°46' W 074°05'2 2.1
2018-Feb-14 13:08N 39°45' W 074°07'0 0.0
2018-Feb-14 12:59N 39°45' W 074°07'3 5.7
2018-Feb-14 12:22N 39°46' W 074°03'2 0.1
2018-Feb-13 13:11N 39°46' W 074°01'2 8.1
2018-Feb-13 12:57N 39°46' W 074°03'3 0.3
2018-Feb-13 02:22N 39°45' W 074°07'0 0.0
2018-Feb-12 12:13N 39°45' W 074°07'0 0.0
2018-Feb-10 23:16N 39°45' W 074°07'0 0.0
2018-Feb-10 14:10N 39°45' W 074°07'0 0.0
2018-Feb-10 13:49N 39°45' W 074°07'0 0.6
2018-Feb-10 13:28N 39°45' W 074°07'  

Dump ship's entire track history